createdAt,value
2023-04-15T00:00:56.219Z,13.32
2023-04-15T00:03:23.103Z,13.38
2023-04-15T00:05:49.847Z,13.48
2023-04-15T00:08:16.365Z,13.48
2023-04-15T00:10:44.268Z,14.15
2023-04-15T00:13:10.742Z,14.40
2023-04-15T00:15:37.705Z,13.73
2023-04-15T00:18:04.541Z,14.13
2023-04-15T00:20:31.407Z,15.50
2023-04-15T00:22:59.407Z,14.77
2023-04-15T00:25:26.301Z,14.88
2023-04-15T00:27:52.866Z,13.02
2023-04-15T00:30:19.688Z,15.18
2023-04-15T00:32:46.942Z,15.55
2023-04-15T00:35:13.861Z,15.55
2023-04-15T00:37:40.467Z,14.90
2023-04-15T00:40:08.959Z,15.52
2023-04-15T00:42:36.380Z,14.48
2023-04-15T00:45:02.827Z,14.55
2023-04-15T00:47:29.793Z,15.93
2023-04-15T00:49:56.598Z,14.38
2023-04-15T00:52:23.014Z,14.80
2023-04-15T00:54:51.183Z,13.23
2023-04-15T00:57:17.660Z,15.90
2023-04-15T00:59:44.069Z,15.55
2023-04-15T01:02:10.640Z,14.48
2023-04-15T01:04:37.623Z,14.80
2023-04-15T01:07:04.293Z,15.48
2023-04-15T01:09:30.835Z,16.48
2023-04-15T01:11:57.763Z,15.45
2023-04-15T01:14:24.207Z,16.00
2023-04-15T01:16:50.899Z,15.63
2023-04-15T01:19:18.088Z,15.68
2023-04-15T01:21:45.346Z,17.42
2023-04-15T01:24:11.886Z,16.63
2023-04-15T01:26:39.220Z,16.15
2023-04-15T01:29:06.620Z,16.83
2023-04-15T01:31:33.040Z,16.75
2023-04-15T01:33:59.698Z,16.50
2023-04-15T01:36:26.187Z,16.20
2023-04-15T01:38:52.619Z,18.02
2023-04-15T01:41:25.363Z,16.38
2023-04-15T01:43:52.563Z,17.73
2023-04-15T01:46:19.250Z,16.92
2023-04-15T01:48:46.128Z,16.58
2023-04-15T01:51:12.836Z,15.77
2023-04-15T01:53:39.269Z,16.95
2023-04-15T01:56:07.212Z,16.80
2023-04-15T01:58:33.739Z,16.67
2023-04-15T02:01:00.663Z,16.98
2023-04-15T02:03:29.166Z,17.27
2023-04-15T02:05:55.886Z,17.02
2023-04-15T02:08:22.626Z,18.05
2023-04-15T02:10:49.144Z,15.77
2023-04-15T02:13:16.889Z,20.05
2023-04-15T02:15:50.064Z,18.60
2023-04-15T02:18:16.787Z,17.00
2023-04-15T02:20:47.145Z,17.77
2023-04-15T02:23:13.861Z,16.65
2023-04-15T02:25:40.421Z,17.63
2023-04-15T02:28:07.162Z,15.32
2023-04-15T02:30:33.958Z,17.10
2023-04-15T02:33:01.394Z,18.67
2023-04-15T02:35:27.987Z,19.23
2023-04-15T02:37:54.506Z,18.10
2023-04-15T02:40:21.226Z,17.85
2023-04-15T02:42:47.696Z,16.73
2023-04-15T02:45:14.219Z,17.17
2023-04-15T02:47:44.368Z,18.45
2023-04-15T02:50:12.767Z,18.55
2023-04-15T02:52:41.662Z,15.40
2023-04-15T02:55:09.694Z,17.02
2023-04-15T02:57:40.653Z,17.02
2023-04-15T03:00:09.684Z,18.02
2023-04-15T03:02:37.205Z,18.45
2023-04-15T03:05:04.476Z,19.08
2023-04-15T03:07:31.076Z,18.08
2023-04-15T03:09:57.869Z,17.20
2023-04-15T03:12:24.445Z,17.10
2023-04-15T03:14:51.237Z,16.60
2023-04-15T03:17:18.070Z,17.48
2023-04-15T03:19:44.580Z,16.90
2023-04-15T03:22:11.028Z,15.48
2023-04-15T03:24:37.529Z,17.13
2023-04-15T03:27:03.971Z,17.05
2023-04-15T03:29:30.680Z,15.45
2023-04-15T03:31:57.179Z,17.63
2023-04-15T03:34:23.653Z,16.40
2023-04-15T03:36:50.093Z,17.10
2023-04-15T03:39:16.533Z,17.48
2023-04-15T03:41:43.094Z,15.43
2023-04-15T03:44:09.580Z,15.32
2023-04-15T03:46:36.235Z,17.75
2023-04-15T03:49:02.991Z,16.80
2023-04-15T03:51:29.951Z,16.75
2023-04-15T03:53:56.999Z,15.68
2023-04-15T03:56:23.435Z,19.13
2023-04-15T03:58:49.868Z,15.77
2023-04-15T04:01:16.621Z,16.63
2023-04-15T04:03:43.263Z,16.90
2023-04-15T04:06:12.406Z,16.10
2023-04-15T04:08:38.966Z,16.90
2023-04-15T04:11:05.469Z,16.83
2023-04-15T04:13:31.975Z,17.95
2023-04-15T04:15:58.425Z,15.75
2023-04-15T04:18:24.927Z,17.08
2023-04-15T04:20:51.525Z,16.75
2023-04-15T04:23:17.981Z,15.80
2023-04-15T04:25:44.395Z,15.77
2023-04-15T04:28:11.667Z,16.10
2023-04-15T04:30:38.229Z,16.20
2023-04-15T04:33:04.752Z,15.15
2023-04-15T04:35:33.663Z,15.85
2023-04-15T04:38:00.595Z,15.50
2023-04-15T04:40:27.425Z,14.75
2023-04-15T04:42:54.318Z,13.68
2023-04-15T04:45:20.903Z,14.93
2023-04-15T04:47:47.940Z,16.33
2023-04-15T04:50:14.546Z,15.70
2023-04-15T04:52:41.160Z,14.88
2023-04-15T04:55:08.568Z,15.07
2023-04-15T04:57:39.426Z,14.50
2023-04-15T05:00:08.525Z,13.52
2023-04-15T05:02:35.406Z,13.60
2023-04-15T05:05:02.096Z,16.00
2023-04-15T05:07:28.574Z,15.02
2023-04-15T05:09:55.016Z,16.13
2023-04-15T05:12:21.590Z,15.70
2023-04-15T05:14:48.078Z,15.18
2023-04-15T05:17:14.531Z,12.70
2023-04-15T05:19:41.139Z,14.00
2023-04-15T05:22:07.827Z,15.25
2023-04-15T05:24:34.310Z,14.68
2023-04-15T05:27:01.877Z,15.20
2023-04-15T05:29:28.365Z,14.30
2023-04-15T05:31:54.839Z,14.05
2023-04-15T05:34:21.670Z,13.60
2023-04-15T05:36:48.152Z,13.70
2023-04-15T05:39:14.575Z,12.23
2023-04-15T05:41:41.134Z,13.35
2023-04-15T05:44:07.544Z,12.30
2023-04-15T05:46:34.034Z,13.10
2023-04-15T05:49:00.771Z,12.60
2023-04-15T05:51:27.820Z,12.93
2023-04-15T05:53:54.311Z,12.68
2023-04-15T05:56:20.875Z,10.30
2023-04-15T05:58:47.425Z,13.50
2023-04-15T06:01:13.880Z,12.70
2023-04-15T06:03:40.474Z,11.32
2023-04-15T06:06:07.688Z,11.10
2023-04-15T06:08:34.217Z,13.15
2023-04-15T06:11:01.031Z,12.38
2023-04-15T06:13:27.483Z,12.18
2023-04-15T06:15:54.180Z,11.35
2023-04-15T06:18:20.729Z,10.57
2023-04-15T06:20:47.173Z,11.35
2023-04-15T06:23:13.679Z,11.38
2023-04-15T06:25:40.078Z,11.43
2023-04-15T06:28:06.764Z,11.45
2023-04-15T06:30:33.239Z,9.48
2023-04-15T06:32:59.937Z,10.63
2023-04-15T06:35:27.446Z,10.43
2023-04-15T06:37:53.893Z,9.30
2023-04-15T06:40:20.577Z,8.85
2023-04-15T06:42:47.006Z,10.35
2023-04-15T06:45:13.488Z,9.65
2023-04-15T06:47:40.749Z,9.95
2023-04-15T06:50:07.681Z,9.23
2023-04-15T06:52:34.097Z,9.30
2023-04-15T06:55:02.022Z,8.82
2023-04-15T06:57:29.141Z,8.30
2023-04-15T06:59:56.117Z,9.52
2023-04-15T07:02:22.910Z,8.25
2023-04-15T07:04:49.432Z,8.70
2023-04-15T07:07:17.526Z,8.70
2023-04-15T07:09:44.570Z,8.65
2023-04-15T07:12:11.557Z,8.20
2023-04-15T07:14:38.074Z,8.02
2023-04-15T07:17:04.516Z,7.90
2023-04-15T07:19:31.102Z,7.50
2023-04-15T07:21:57.609Z,6.13
2023-04-15T07:24:26.650Z,6.22
2023-04-15T07:26:56.595Z,6.10
2023-04-15T07:29:24.033Z,7.25
2023-04-15T07:31:50.544Z,8.35
2023-04-15T07:34:17.271Z,7.82
2023-04-15T07:36:43.760Z,7.50
2023-04-15T07:39:10.251Z,7.30
2023-04-15T07:41:37.039Z,7.43
2023-04-15T07:44:03.970Z,6.50
2023-04-15T07:46:30.598Z,7.70
2023-04-15T07:48:57.447Z,8.43
2023-04-15T07:51:24.073Z,7.95
2023-04-15T07:53:50.596Z,7.75
2023-04-15T07:56:17.172Z,8.07
2023-04-15T07:58:43.748Z,7.93
2023-04-15T08:01:10.156Z,8.30
2023-04-15T08:03:37.139Z,8.60
2023-04-15T08:06:03.932Z,8.50
2023-04-15T08:08:30.405Z,8.77
2023-04-15T08:10:58.324Z,8.15
2023-04-15T08:13:25.900Z,8.38
2023-04-15T08:16:22.374Z,8.25
2023-04-15T08:18:50.083Z,7.65
2023-04-15T08:21:17.823Z,7.75
2023-04-15T08:23:45.664Z,6.93
2023-04-15T08:26:12.820Z,8.13
2023-04-15T08:28:40.629Z,7.45
2023-04-15T08:31:07.391Z,7.65
2023-04-15T08:33:33.951Z,8.75
2023-04-15T08:36:00.484Z,9.10
2023-04-15T08:38:27.105Z,8.13
2023-04-15T08:40:53.566Z,8.70
2023-04-15T08:43:26.980Z,9.40
2023-04-15T08:45:53.555Z,8.07
2023-04-15T08:48:21.228Z,9.60
2023-04-15T08:50:48.690Z,9.45
2023-04-15T08:53:15.527Z,9.95
2023-04-15T08:55:46.354Z,10.10
2023-04-15T08:58:14.241Z,9.55
2023-04-15T09:00:41.264Z,10.02
2023-04-15T09:03:09.027Z,10.07
2023-04-15T09:05:37.145Z,9.82
2023-04-15T09:08:04.326Z,9.88
2023-04-15T09:10:31.664Z,9.25
2023-04-15T09:12:58.427Z,9.68
2023-04-15T09:15:25.844Z,10.18
2023-04-15T09:17:52.872Z,9.68
2023-04-15T09:20:19.463Z,10.32
2023-04-15T09:22:48.155Z,7.55
2023-04-15T09:25:24.401Z,10.18
2023-04-15T09:30:17.824Z,9.48
2023-04-15T09:32:54.500Z,9.90
2023-04-15T09:35:22.259Z,9.20
2023-04-15T09:37:49.690Z,9.32
2023-04-15T09:40:31.724Z,9.65
2023-04-15T09:42:58.266Z,10.82
2023-04-15T09:45:27.150Z,8.90
2023-04-15T09:47:59.105Z,9.13
2023-04-15T09:50:32.368Z,8.20
2023-04-15T09:52:59.593Z,9.18
2023-04-15T09:55:26.344Z,8.82
2023-04-15T09:57:52.762Z,8.35
2023-04-15T10:00:19.277Z,9.65
2023-04-15T10:02:47.685Z,10.02
2023-04-15T10:05:15.533Z,9.70
2023-04-15T10:07:42.907Z,10.55
2023-04-15T10:10:11.068Z,9.68
2023-04-15T10:12:38.453Z,9.48
2023-04-15T10:15:07.092Z,9.70
2023-04-15T10:17:35.417Z,10.73
2023-04-15T10:20:04.747Z,9.98
2023-04-15T10:22:32.110Z,10.35
2023-04-15T10:24:59.855Z,9.43
2023-04-15T10:27:27.805Z,10.85
2023-04-15T10:29:54.693Z,10.48
2023-04-15T10:32:21.863Z,9.45
2023-04-15T10:34:49.459Z,10.73
2023-04-15T10:37:33.738Z,9.93
2023-04-15T10:40:00.205Z,10.20
2023-04-15T10:42:34.098Z,16.48
2023-04-15T10:45:00.599Z,18.33
2023-04-15T10:47:27.072Z,14.40
2023-04-15T10:50:00.455Z,15.02
2023-04-15T10:52:28.762Z,12.73
2023-04-15T10:55:12.919Z,11.02
2023-04-15T10:57:40.909Z,10.43
2023-04-15T11:00:18.778Z,10.23
2023-04-15T11:02:58.915Z,10.45
2023-04-15T11:05:51.934Z,11.25
2023-04-15T11:08:18.817Z,11.57
2023-04-15T11:10:45.411Z,9.73
2023-04-15T11:13:11.843Z,9.50
2023-04-15T11:15:38.791Z,9.15
2023-04-15T11:18:14.503Z,11.00
2023-04-15T11:20:51.788Z,10.30
2023-04-15T11:23:19.843Z,10.88
2023-04-15T11:25:46.381Z,9.90
2023-04-15T11:28:13.690Z,11.13
2023-04-15T11:30:40.835Z,11.13
2023-04-15T11:33:09.488Z,10.95
2023-04-15T11:35:36.574Z,11.57
2023-04-15T11:38:09.354Z,11.25
2023-04-15T11:40:46.850Z,11.20
2023-04-15T11:43:15.030Z,11.73
2023-04-15T11:46:00.416Z,10.02
2023-04-15T11:48:29.233Z,11.10
2023-04-15T11:50:57.928Z,11.60
2023-04-15T11:53:25.012Z,11.73
2023-04-15T11:55:53.463Z,12.13
2023-04-15T11:58:24.531Z,11.40
2023-04-15T12:01:08.834Z,11.98
2023-04-15T12:03:49.240Z,11.77
2023-04-15T12:06:20.598Z,12.05
2023-04-15T12:09:15.297Z,11.02
2023-04-15T12:11:48.547Z,11.93
2023-04-15T12:14:30.625Z,11.38
2023-04-15T12:17:00.398Z,11.57
2023-04-15T12:19:28.762Z,10.02
2023-04-15T12:22:04.155Z,12.00
2023-04-15T12:24:34.949Z,12.43
2023-04-15T12:27:05.549Z,10.73
2023-04-15T12:29:33.040Z,10.75
2023-04-15T12:32:12.380Z,10.45
2023-04-15T12:34:40.969Z,10.25
2023-04-15T12:37:12.085Z,10.10
2023-04-15T12:39:40.592Z,11.30
2023-04-15T12:42:07.743Z,10.25
2023-04-15T12:44:35.709Z,10.20
2023-04-15T12:47:02.924Z,10.63
2023-04-15T12:49:32.561Z,8.48
2023-04-15T12:52:00.823Z,10.00
2023-04-15T12:54:28.173Z,9.15
2023-04-15T12:56:55.516Z,9.20
2023-04-15T12:59:23.815Z,9.10
2023-04-15T13:01:51.056Z,8.73
2023-04-15T13:04:17.780Z,9.43
2023-04-15T13:06:44.515Z,9.70
2023-04-15T13:09:10.999Z,9.95
2023-04-15T13:11:37.542Z,8.57
2023-04-15T13:14:05.883Z,10.13
2023-04-15T13:16:33.198Z,9.63
2023-04-15T13:19:00.350Z,9.75
2023-04-15T13:21:27.391Z,10.13
2023-04-15T13:23:56.238Z,9.68
2023-04-15T13:26:23.163Z,10.73
2023-04-15T13:28:49.684Z,10.20
2023-04-15T13:31:16.347Z,9.35
2023-04-15T13:33:42.937Z,9.90
2023-04-15T13:36:09.530Z,9.68
2023-04-15T13:38:36.248Z,9.40
2023-04-15T13:41:02.708Z,8.93
2023-04-15T13:43:29.183Z,8.63
2023-04-15T13:45:56.072Z,7.65
2023-04-15T13:48:22.666Z,7.72
2023-04-15T13:50:49.173Z,7.50
2023-04-15T13:53:16.804Z,8.48
2023-04-15T13:55:43.338Z,9.02
2023-04-15T13:58:10.001Z,7.35
2023-04-15T14:00:37.033Z,9.27
2023-04-15T14:03:03.889Z,8.50
2023-04-15T14:05:30.735Z,10.07
2023-04-15T14:07:57.207Z,9.23
2023-04-15T14:10:23.799Z,9.15
2023-04-15T14:12:50.233Z,9.57
2023-04-15T14:15:16.733Z,9.73
2023-04-15T14:17:43.324Z,9.73
2023-04-15T14:20:10.179Z,7.88
2023-04-15T14:22:36.791Z,9.43
2023-04-15T14:25:04.062Z,9.77
2023-04-15T14:27:30.509Z,10.30
2023-04-15T14:29:58.701Z,10.10
2023-04-15T14:32:26.326Z,9.30
2023-04-15T14:34:52.800Z,10.18
2023-04-15T14:37:19.249Z,8.35
2023-04-15T14:39:45.687Z,9.75
2023-04-15T14:42:12.166Z,10.88
2023-04-15T14:44:38.818Z,10.15
2023-04-15T14:47:06.079Z,9.88
2023-04-15T14:49:32.678Z,9.07
2023-04-15T14:51:59.159Z,10.05
2023-04-15T14:54:25.676Z,10.27
2023-04-15T14:56:52.193Z,8.25
2023-04-15T14:59:18.634Z,8.70
2023-04-15T15:01:45.567Z,8.30
2023-04-15T15:04:13.015Z,7.53
2023-04-15T15:06:40.678Z,7.45
2023-04-15T15:09:07.682Z,8.57
2023-04-15T15:11:34.223Z,8.57
2023-04-15T15:14:00.930Z,7.70
2023-04-15T15:16:28.206Z,7.95
2023-04-15T15:18:55.176Z,8.20
2023-04-15T15:21:21.675Z,8.43
2023-04-15T15:23:48.564Z,9.45
2023-04-15T15:26:15.793Z,8.13
2023-04-15T15:28:42.456Z,7.45
2023-04-15T15:31:09.123Z,8.52
2023-04-15T15:33:35.705Z,8.82
2023-04-15T15:36:04.458Z,8.20
2023-04-15T15:38:30.994Z,8.40
2023-04-15T15:40:57.523Z,7.72
2023-04-15T15:43:24.009Z,8.20
2023-04-15T15:45:52.246Z,8.07
2023-04-15T15:48:18.716Z,8.35
2023-04-15T15:50:45.723Z,8.63
2023-04-15T15:53:12.471Z,8.40
2023-04-15T15:55:38.953Z,8.68
2023-04-15T15:58:05.628Z,7.25
2023-04-15T16:00:32.197Z,7.55
2023-04-15T16:05:28.168Z,7.57
2023-04-15T16:07:54.618Z,7.97
2023-04-15T16:10:21.080Z,7.35
2023-04-15T16:12:47.538Z,7.05
2023-04-15T16:15:14.545Z,6.97
2023-04-15T16:17:41.114Z,8.27
2023-04-15T16:20:08.195Z,7.93
2023-04-15T16:22:35.422Z,7.65
2023-04-15T16:25:01.995Z,6.90
2023-04-15T16:27:28.482Z,8.35
2023-04-15T16:29:54.953Z,6.60
2023-04-15T16:32:21.533Z,7.70
2023-04-15T16:34:48.128Z,8.65
2023-04-15T16:37:14.627Z,7.93
2023-04-15T16:39:41.246Z,5.63
2023-04-15T16:42:07.825Z,7.05
2023-04-15T16:44:34.309Z,7.07
2023-04-15T16:47:02.956Z,6.95
2023-04-15T16:49:29.779Z,7.10
2023-04-15T16:51:56.244Z,7.88
2023-04-15T16:54:22.870Z,7.97
2023-04-15T16:56:49.398Z,7.72
2023-04-15T16:59:15.876Z,8.27
2023-04-15T17:01:42.431Z,7.85
2023-04-15T17:04:09.076Z,7.47
2023-04-15T17:06:35.772Z,7.15
2023-04-15T17:09:02.460Z,7.10
2023-04-15T17:11:29.055Z,6.47
2023-04-15T17:13:55.540Z,8.07
2023-04-15T17:16:22.075Z,8.27
2023-04-15T17:18:50.269Z,7.80
2023-04-15T17:21:17.602Z,7.80
2023-04-15T17:23:44.051Z,7.93
2023-04-15T17:26:10.757Z,8.02
2023-04-15T17:28:37.878Z,8.18
2023-04-15T17:31:04.802Z,8.02
2023-04-15T17:33:57.610Z,7.45
2023-04-15T17:36:17.831Z,8.70
2023-04-15T17:38:45.491Z,8.15
2023-04-15T17:41:12.128Z,8.38
2023-04-15T17:43:38.628Z,7.63
2023-04-15T17:46:07.125Z,7.80
2023-04-15T17:48:34.205Z,7.13
2023-04-15T17:51:00.862Z,7.95
2023-04-15T17:53:27.347Z,8.20
2023-04-15T17:55:53.883Z,7.82
2023-04-15T17:58:20.359Z,8.30
2023-04-15T18:00:47.221Z,7.93
2023-04-15T18:03:14.211Z,8.60
2023-04-15T18:05:42.652Z,9.27
2023-04-15T18:08:09.419Z,8.55
2023-04-15T18:10:36.458Z,9.07
2023-04-15T18:13:03.408Z,8.75
2023-04-15T18:15:31.229Z,8.68
2023-04-15T18:18:00.916Z,8.65
2023-04-15T18:20:27.882Z,8.13
2023-04-15T18:22:54.551Z,8.85
2023-04-15T18:25:21.112Z,9.13
2023-04-15T18:27:47.621Z,8.40
2023-04-15T18:30:14.103Z,7.57
2023-04-15T18:32:41.398Z,8.18
2023-04-15T18:35:08.332Z,7.40
2023-04-15T18:37:35.365Z,8.65
2023-04-15T18:40:01.933Z,8.30
2023-04-15T18:42:28.414Z,7.22
2023-04-15T18:44:55.349Z,8.25
2023-04-15T18:47:22.050Z,8.73
2023-04-15T18:49:48.537Z,9.25
2023-04-15T18:52:15.106Z,7.95
2023-04-15T18:54:41.564Z,8.75
2023-04-15T18:57:08.068Z,7.55
2023-04-15T18:59:34.676Z,9.57
2023-04-15T19:02:03.527Z,8.90
2023-04-15T19:04:30.178Z,9.43
2023-04-15T19:06:57.105Z,9.70
2023-04-15T19:09:23.626Z,10.07
2023-04-15T19:11:50.361Z,7.78
2023-04-15T19:14:17.734Z,9.88
2023-04-15T19:16:44.340Z,10.88
2023-04-15T19:19:14.304Z,9.48
2023-04-15T19:21:41.188Z,8.07
2023-04-15T19:24:07.677Z,9.85
2023-04-15T19:26:34.314Z,10.20
2023-04-15T19:29:01.036Z,10.68
2023-04-15T19:31:27.525Z,9.98
2023-04-15T19:33:54.040Z,11.75
2023-04-15T19:36:20.755Z,11.93
2023-04-15T19:38:47.191Z,11.27
2023-04-15T19:41:13.712Z,12.32
2023-04-15T19:43:40.264Z,12.73
2023-04-15T19:46:06.999Z,12.77
2023-04-15T19:48:33.520Z,13.15
2023-04-15T19:51:00.540Z,14.70
2023-04-15T19:53:26.996Z,14.60
2023-04-15T19:55:53.448Z,14.88
2023-04-15T19:58:19.896Z,13.25
2023-04-15T20:00:46.319Z,15.18
2023-04-15T20:03:12.907Z,15.00
2023-04-15T20:05:39.587Z,15.20
2023-04-15T20:08:06.286Z,16.25
2023-04-15T20:10:32.715Z,15.52
2023-04-15T20:12:59.251Z,14.55
2023-04-15T20:15:26.193Z,15.00
2023-04-15T20:17:52.940Z,15.57
2023-04-15T20:20:19.605Z,14.43
2023-04-15T20:22:46.177Z,15.38
2023-04-15T20:25:12.722Z,15.50
2023-04-15T20:27:39.298Z,14.40
2023-04-15T20:30:06.521Z,15.02
2023-04-15T20:32:35.675Z,13.77
2023-04-15T20:35:03.791Z,14.73
2023-04-15T20:37:30.798Z,15.13
2023-04-15T20:39:57.276Z,13.63
2023-04-15T20:42:23.797Z,15.02
2023-04-15T20:44:50.560Z,14.55
2023-04-15T20:47:17.235Z,14.65
2023-04-15T20:49:43.818Z,14.18
2023-04-15T20:52:10.652Z,15.05
2023-04-15T20:54:37.137Z,14.73
2023-04-15T20:57:03.746Z,13.02
2023-04-15T20:59:30.476Z,15.70
2023-04-15T21:01:57.481Z,14.68
2023-04-15T21:04:24.974Z,12.38
2023-04-15T21:06:52.210Z,15.40
2023-04-15T21:09:18.912Z,15.45
2023-04-15T21:14:18.993Z,13.77
2023-04-15T21:16:45.584Z,15.43
2023-04-15T21:19:12.226Z,15.40
2023-04-15T21:21:38.780Z,14.25
2023-04-15T21:24:07.543Z,14.40
2023-04-15T21:26:34.180Z,15.20
2023-04-15T21:29:00.719Z,15.10
2023-04-15T21:31:27.196Z,13.07
2023-04-15T21:33:53.666Z,14.90
2023-04-15T21:36:20.240Z,15.50
2023-04-15T21:38:46.711Z,15.38
2023-04-15T21:41:13.125Z,16.63
2023-04-15T21:43:39.681Z,15.20
2023-04-15T21:46:23.412Z,15.10
2023-04-15T21:48:53.085Z,16.27
2023-04-15T21:51:19.540Z,15.40
2023-04-15T21:53:46.106Z,17.23
2023-04-15T21:56:12.594Z,16.00
2023-04-15T21:58:39.067Z,16.33
2023-04-15T22:01:05.696Z,16.08
2023-04-15T22:03:34.068Z,15.52
2023-04-15T22:06:01.805Z,16.58
2023-04-15T22:08:28.331Z,15.60
2023-04-15T22:10:55.957Z,15.77
2023-04-15T22:13:22.537Z,15.10
2023-04-15T22:15:48.990Z,15.63
2023-04-15T22:18:15.639Z,15.60
2023-04-15T22:20:42.190Z,14.77
2023-04-15T22:23:09.836Z,15.98
2023-04-15T22:25:37.222Z,15.48
2023-04-15T22:28:07.358Z,15.93
2023-04-15T22:30:40.206Z,14.65
2023-04-15T22:33:07.700Z,15.00
2023-04-15T22:35:36.135Z,15.45
2023-04-15T22:38:03.653Z,16.45
2023-04-15T22:40:30.248Z,15.68
2023-04-15T22:42:56.728Z,17.10
2023-04-15T22:45:23.542Z,15.73
2023-04-15T22:47:49.998Z,15.38
2023-04-15T22:50:16.858Z,15.93
2023-04-15T22:52:46.133Z,16.60
2023-04-15T22:55:12.904Z,15.98
2023-04-15T22:57:39.339Z,17.25
2023-04-15T23:00:07.487Z,15.50
2023-04-15T23:02:34.756Z,17.33
2023-04-15T23:05:01.593Z,17.70
2023-04-15T23:07:29.584Z,16.85
2023-04-15T23:09:56.778Z,17.33
2023-04-15T23:12:23.387Z,16.50
2023-04-15T23:14:49.834Z,17.00
2023-04-15T23:17:16.290Z,16.98
2023-04-15T23:19:42.690Z,17.00
2023-04-15T23:22:10.652Z,17.77
2023-04-15T23:24:37.157Z,17.70
2023-04-15T23:27:03.768Z,16.08
2023-04-15T23:29:30.371Z,15.60
2023-04-15T23:31:57.103Z,16.98
2023-04-15T23:34:23.748Z,15.55
2023-04-15T23:36:50.239Z,18.17
2023-04-15T23:39:16.911Z,17.77
2023-04-15T23:41:43.431Z,16.35
2023-04-15T23:44:10.047Z,15.60
2023-04-15T23:46:36.659Z,16.85
2023-04-15T23:49:03.180Z,16.67
2023-04-15T23:51:29.614Z,16.58
2023-04-15T23:53:56.185Z,16.23
2023-04-15T23:56:22.741Z,15.48
2023-04-15T23:58:49.194Z,16.27
